createdAt,value
2023-03-04T00:00:02.189Z,1012.22
2023-03-04T00:01:02.111Z,1012.25
2023-03-04T00:02:02.127Z,1012.21
2023-03-04T00:03:02.078Z,1012.23
2023-03-04T00:04:02.035Z,1012.23
2023-03-04T00:05:01.969Z,1012.24
2023-03-04T00:06:01.946Z,1012.23
2023-03-04T00:07:01.904Z,1012.24
2023-03-04T00:08:01.871Z,1012.27
2023-03-04T00:09:01.835Z,1012.26
2023-03-04T00:10:01.830Z,1012.25
2023-03-04T00:11:01.768Z,1012.24
2023-03-04T00:12:01.737Z,1012.25
2023-03-04T00:13:01.712Z,1012.21
2023-03-04T00:14:01.695Z,1012.26
2023-03-04T00:15:01.631Z,1012.26
2023-03-04T00:16:01.648Z,1012.24
2023-03-04T00:17:01.563Z,1012.19
2023-03-04T00:18:01.532Z,1012.22
2023-03-04T00:19:01.519Z,1012.2
2023-03-04T00:20:01.465Z,1012.18
2023-03-04T00:21:01.448Z,1012.19
2023-03-04T00:22:01.406Z,1012.22
2023-03-04T00:23:01.361Z,1012.21
2023-03-04T00:24:01.328Z,1012.19
2023-03-04T00:25:01.293Z,1012.2
2023-03-04T00:26:01.269Z,1012.23
2023-03-04T00:27:01.226Z,1012.21
2023-03-04T00:28:01.206Z,1012.22
2023-03-04T00:29:01.210Z,1012.23
2023-03-04T00:30:01.130Z,1012.23
2023-03-04T00:31:01.092Z,1012.22
2023-03-04T00:32:01.246Z,1012.24
2023-03-04T00:33:01.021Z,1012.24
2023-03-04T00:34:00.987Z,1012.2
2023-03-04T00:35:00.977Z,1012.23
2023-03-04T00:36:00.922Z,1012.19
2023-03-04T00:37:00.886Z,1012.17
2023-03-04T00:38:00.852Z,1012.18
2023-03-04T00:39:00.817Z,1012.2
2023-03-04T00:40:00.785Z,1012.15
2023-03-04T00:41:00.761Z,1012.15
2023-03-04T00:42:00.716Z,1012.15
2023-03-04T00:43:00.688Z,1012.12
2023-03-04T00:44:00.648Z,1012.11
2023-03-04T00:45:00.619Z,1012.09
2023-03-04T00:46:00.617Z,1012.12
2023-03-04T00:47:00.549Z,1012.07
2023-03-04T00:48:00.515Z,1012.06
2023-03-04T00:49:00.479Z,1012.06
2023-03-04T00:50:00.453Z,1012.07
2023-03-04T00:51:00.444Z,1012.07
2023-03-04T00:52:00.377Z,1012.06
2023-03-04T00:53:00.344Z,1012.08
2023-03-04T00:54:00.953Z,1012.09
2023-03-04T00:55:00.309Z,1012.08
2023-03-04T00:56:00.246Z,1012.02
2023-03-04T00:57:00.210Z,1012.08
2023-03-04T00:58:00.172Z,1012.06
2023-03-04T00:59:00.170Z,1012.07
2023-03-04T01:00:00.148Z,1012.05
2023-03-04T01:01:00.111Z,1012.05
2023-03-04T01:02:00.287Z,1012.04
2023-03-04T01:03:00.006Z,1012.04
2023-03-04T01:03:59.972Z,1012.03
2023-03-04T01:04:59.948Z,1012.03
2023-03-04T01:05:59.918Z,1012.07
2023-03-04T01:06:59.897Z,1012.01
2023-03-04T01:07:59.832Z,1012.04
2023-03-04T01:08:59.810Z,1012.07
2023-03-04T01:09:59.774Z,1012.04
2023-03-04T01:10:59.744Z,1011.99
2023-03-04T01:11:59.716Z,1011.97
2023-03-04T01:12:59.671Z,1011.95
2023-03-04T01:13:59.635Z,1011.98
2023-03-04T01:14:59.598Z,1011.96
2023-03-04T01:15:59.562Z,1011.99
2023-03-04T01:16:59.574Z,1012
2023-03-04T01:17:59.558Z,1011.99
2023-03-04T01:18:59.461Z,1012.01
2023-03-04T01:19:59.429Z,1012
2023-03-04T01:20:59.401Z,1011.99
2023-03-04T01:21:59.357Z,1012.01
2023-03-04T01:22:59.353Z,1011.99
2023-03-04T01:23:59.289Z,1011.98
2023-03-04T01:24:59.256Z,1011.97
2023-03-04T01:25:59.222Z,1011.98
2023-03-04T01:26:59.187Z,1011.96
2023-03-04T01:27:59.153Z,1011.91
2023-03-04T01:28:59.126Z,1011.88
2023-03-04T01:29:59.088Z,1011.93
2023-03-04T01:30:59.067Z,1011.89
2023-03-04T01:31:59.049Z,1011.94
2023-03-04T01:32:58.985Z,1011.91
2023-03-04T01:33:58.956Z,1011.86
2023-03-04T01:34:58.923Z,1011.84
2023-03-04T01:35:58.894Z,1011.85
2023-03-04T01:36:58.852Z,1011.83
2023-03-04T01:37:58.817Z,1011.86
2023-03-04T01:38:58.808Z,1011.78
2023-03-04T01:39:58.749Z,1011.84
2023-03-04T01:40:58.717Z,1011.78
2023-03-04T01:41:58.683Z,1011.79
2023-03-04T01:42:58.645Z,1011.8
2023-03-04T01:43:58.618Z,1011.81
2023-03-04T01:44:58.578Z,1011.78
2023-03-04T01:45:58.597Z,1011.77
2023-03-04T01:46:58.512Z,1011.78
2023-03-04T01:47:58.479Z,1011.77
2023-03-04T01:48:58.485Z,1011.77
2023-03-04T01:49:58.412Z,1011.79
2023-03-04T01:50:58.380Z,1011.78
2023-03-04T01:51:58.345Z,1011.8
2023-03-04T01:52:58.310Z,1011.8
2023-03-04T01:53:58.277Z,1011.77
2023-03-04T01:54:58.265Z,1011.73
2023-03-04T01:55:58.209Z,1011.79
2023-03-04T01:56:58.174Z,1011.77
2023-03-04T01:57:58.148Z,1011.79
2023-03-04T01:58:58.106Z,1011.75
2023-03-04T01:59:58.076Z,1011.79
2023-03-04T02:00:58.040Z,1011.75
2023-03-04T02:01:58.007Z,1011.75
2023-03-04T02:02:57.976Z,1011.74
2023-03-04T02:03:57.992Z,1011.71
2023-03-04T02:04:57.901Z,1011.74
2023-03-04T02:05:57.876Z,1011.73
2023-03-04T02:06:57.834Z,1011.71
2023-03-04T02:07:57.802Z,1011.71
2023-03-04T02:08:57.768Z,1011.69
2023-03-04T02:09:57.737Z,1011.63
2023-03-04T02:10:57.730Z,1011.67
2023-03-04T02:11:57.667Z,1011.67
2023-03-04T02:12:57.630Z,1011.74
2023-03-04T02:13:57.600Z,1011.68
2023-03-04T02:14:57.563Z,1011.62
2023-03-04T02:15:57.558Z,1011.67
2023-03-04T02:16:57.511Z,1011.65
2023-03-04T02:17:57.465Z,1011.65
2023-03-04T02:18:57.441Z,1011.67
2023-03-04T02:19:57.395Z,1011.6
2023-03-04T02:20:57.359Z,1011.59
2023-03-04T02:21:57.332Z,1011.6
2023-03-04T02:22:57.292Z,1011.6
2023-03-04T02:23:57.259Z,1011.6
2023-03-04T02:24:57.226Z,1011.61
2023-03-04T02:25:57.191Z,1011.6
2023-03-04T02:26:57.179Z,1011.6
2023-03-04T02:27:57.122Z,1011.61
2023-03-04T02:28:57.088Z,1011.58
2023-03-04T02:29:57.066Z,1011.56
2023-03-04T02:30:57.061Z,1011.58
2023-03-04T02:31:57.000Z,1011.58
2023-03-04T02:32:56.954Z,1011.59
2023-03-04T02:33:56.929Z,1011.53
2023-03-04T02:34:56.886Z,1011.52
2023-03-04T02:35:56.932Z,1011.49
2023-03-04T02:36:56.818Z,1011.58
2023-03-04T02:37:56.785Z,1011.6
2023-03-04T02:38:56.751Z,1011.55
2023-03-04T02:39:56.714Z,1011.51
2023-03-04T02:40:56.683Z,1011.52
2023-03-04T02:41:56.646Z,1011.51
2023-03-04T02:42:56.646Z,1011.51
2023-03-04T02:43:56.581Z,1011.51
2023-03-04T02:44:56.548Z,1011.46
2023-03-04T02:45:56.511Z,1011.44
2023-03-04T02:46:56.534Z,1011.43
2023-03-04T02:47:56.445Z,1011.43
2023-03-04T02:48:56.409Z,1011.47
2023-03-04T02:49:56.383Z,1011.44
2023-03-04T02:50:56.343Z,1011.44
2023-03-04T02:51:56.308Z,1011.42
2023-03-04T02:52:56.275Z,1011.44
2023-03-04T02:53:56.242Z,1011.45
2023-03-04T02:54:56.207Z,1011.38
2023-03-04T02:55:56.172Z,1011.37
2023-03-04T02:56:56.141Z,1011.35
2023-03-04T02:57:56.105Z,1011.39
2023-03-04T02:58:56.095Z,1011.38
2023-03-04T02:59:56.042Z,1011.33
2023-03-04T03:00:56.002Z,1011.33
2023-03-04T03:01:56.028Z,1011.36
2023-03-04T03:02:56.010Z,1011.3
2023-03-04T03:03:55.903Z,1011.31
2023-03-04T03:04:55.867Z,1011.29
2023-03-04T03:05:55.833Z,1011.25
2023-03-04T03:06:55.806Z,1011.22
2023-03-04T03:07:55.765Z,1011.24
2023-03-04T03:08:55.732Z,1011.23
2023-03-04T03:09:55.697Z,1011.34
2023-03-04T03:10:55.662Z,1011.21
2023-03-04T03:11:55.628Z,1011.2
2023-03-04T03:12:55.618Z,1011.21
2023-03-04T03:13:55.561Z,1011.2
2023-03-04T03:14:55.553Z,1011.17
2023-03-04T03:15:55.490Z,1011.18
2023-03-04T03:16:55.458Z,1011.18
2023-03-04T03:17:55.428Z,1011.13
2023-03-04T03:18:55.389Z,1011.2
2023-03-04T03:19:55.369Z,1011.15
2023-03-04T03:20:55.321Z,1011.14
2023-03-04T03:21:55.288Z,1011.15
2023-03-04T03:22:55.251Z,1011.12
2023-03-04T03:23:55.219Z,1011.12
2023-03-04T03:24:55.184Z,1011.15
2023-03-04T03:25:55.149Z,1011.12
2023-03-04T03:26:55.115Z,1011.13
2023-03-04T03:27:55.082Z,1011.19
2023-03-04T03:28:55.046Z,1011.14
2023-03-04T03:29:55.016Z,1011.15
2023-03-04T03:30:55.005Z,1011.16
2023-03-04T03:31:55.015Z,1011.16
2023-03-04T03:32:54.910Z,1011.12
2023-03-04T03:33:54.878Z,1011.14
2023-03-04T03:34:54.842Z,1011.14
2023-03-04T03:35:54.934Z,1011.14
2023-03-04T03:36:54.777Z,1011.11
2023-03-04T03:37:54.751Z,1011.09
2023-03-04T03:38:54.711Z,1011.11
2023-03-04T03:39:54.673Z,1011.14
2023-03-04T03:40:54.639Z,1011.11
2023-03-04T03:41:54.614Z,1011.08
2023-03-04T03:42:54.598Z,1011.09
2023-03-04T03:43:54.536Z,1011.07
2023-03-04T03:44:54.514Z,1011.08
2023-03-04T03:45:54.520Z,1011.06
2023-03-04T03:46:54.460Z,1011.04
2023-03-04T03:47:54.402Z,1011.07
2023-03-04T03:48:54.366Z,1011.01
2023-03-04T03:49:54.334Z,1011.02
2023-03-04T03:50:54.298Z,1011.05
2023-03-04T03:51:54.267Z,1011.03
2023-03-04T03:52:54.230Z,1011.03
2023-03-04T03:53:54.199Z,1011.03
2023-03-04T03:54:54.162Z,1011.07
2023-03-04T03:55:54.134Z,1011.03
2023-03-04T03:56:54.096Z,1011.06
2023-03-04T03:57:54.063Z,1011
2023-03-04T03:58:54.031Z,1011.04
2023-03-04T03:59:53.996Z,1011.06
2023-03-04T04:00:55.421Z,1011.06
2023-03-04T04:01:54.035Z,1011.1
2023-03-04T04:02:53.992Z,1011.09
2023-03-04T04:03:53.861Z,1011.08
2023-03-04T04:04:53.829Z,1011.08
2023-03-04T04:05:53.821Z,1011.03
2023-03-04T04:06:53.764Z,1011.02
2023-03-04T04:07:54.201Z,1011.01
2023-03-04T04:08:53.696Z,1011.03
2023-03-04T04:09:53.655Z,1011.01
2023-03-04T04:10:53.633Z,1011.01
2023-03-04T04:11:53.601Z,1011.02
2023-03-04T04:12:53.557Z,1010.98
2023-03-04T04:13:53.519Z,1010.97
2023-03-04T04:14:53.491Z,1011
2023-03-04T04:15:53.458Z,1010.99
2023-03-04T04:16:53.522Z,1010.98
2023-03-04T04:17:53.390Z,1011.01
2023-03-04T04:18:53.393Z,1011.01
2023-03-04T04:19:53.327Z,1011.03
2023-03-04T04:20:53.286Z,1011
2023-03-04T04:21:53.248Z,1011.01
2023-03-04T04:22:53.225Z,1011
2023-03-04T04:23:53.190Z,1010.98
2023-03-04T04:24:53.150Z,1010.99
2023-03-04T04:25:53.112Z,1010.95
2023-03-04T04:26:53.085Z,1010.97
2023-03-04T04:27:53.044Z,1010.98
2023-03-04T04:28:53.010Z,1010.93
2023-03-04T04:29:52.999Z,1010.96
2023-03-04T04:30:53.024Z,1010.99
2023-03-04T04:31:52.903Z,1010.97
2023-03-04T04:32:52.872Z,1010.97
2023-03-04T04:33:52.840Z,1010.99
2023-03-04T04:34:52.830Z,1010.93
2023-03-04T04:35:52.791Z,1011.02
2023-03-04T04:36:52.739Z,1010.96
2023-03-04T04:37:52.711Z,1010.96
2023-03-04T04:38:52.666Z,1010.97
2023-03-04T04:39:52.630Z,1010.95
2023-03-04T04:40:52.598Z,1010.96
2023-03-04T04:41:52.563Z,1011.01
2023-03-04T04:42:52.528Z,1011.05
2023-03-04T04:43:52.493Z,1010.99
2023-03-04T04:44:52.461Z,1010.98
2023-03-04T04:45:52.471Z,1011.01
2023-03-04T04:46:52.401Z,1011
2023-03-04T04:47:52.357Z,1010.98
2023-03-04T04:48:52.327Z,1011.08
2023-03-04T04:49:52.289Z,1011.05
2023-03-04T04:50:52.282Z,1011.05
2023-03-04T04:51:52.220Z,1010.99
2023-03-04T04:52:52.187Z,1011.11
2023-03-04T04:53:52.163Z,1011.07
2023-03-04T04:54:52.119Z,1011.06
2023-03-04T04:55:52.083Z,1011.09
2023-03-04T04:56:52.053Z,1011.09
2023-03-04T04:57:52.015Z,1011.1
2023-03-04T04:58:51.981Z,1011.08
2023-03-04T04:59:51.950Z,1011.05
2023-03-04T05:00:51.914Z,1011.08
2023-03-04T05:01:51.882Z,1011.06
2023-03-04T05:02:51.910Z,1011.04
2023-03-04T05:03:51.814Z,1011.06
2023-03-04T05:04:51.785Z,1011.06
2023-03-04T05:05:51.748Z,1011.06
2023-03-04T05:06:51.741Z,1011.08
2023-03-04T05:07:51.680Z,1011.1
2023-03-04T05:08:51.644Z,1011.08
2023-03-04T05:09:51.613Z,1011.06
2023-03-04T05:10:51.580Z,1011.09
2023-03-04T05:11:51.544Z,1011.04
2023-03-04T05:12:51.511Z,1011.01
2023-03-04T05:13:51.486Z,1011.06
2023-03-04T05:14:51.443Z,1011.03
2023-03-04T05:15:51.431Z,1011.06
2023-03-04T05:16:51.375Z,1011.06
2023-03-04T05:17:51.344Z,1011.03
2023-03-04T05:18:51.306Z,1011.06
2023-03-04T05:19:51.274Z,1011.03
2023-03-04T05:20:51.239Z,1011
2023-03-04T05:21:51.208Z,1010.99
2023-03-04T05:22:51.196Z,1011.03
2023-03-04T05:23:51.143Z,1010.99
2023-03-04T05:24:51.104Z,1011.04
2023-03-04T05:25:51.071Z,1011.01
2023-03-04T05:26:51.037Z,1010.97
2023-03-04T05:27:51.003Z,1010.99
2023-03-04T05:28:50.973Z,1010.95
2023-03-04T05:29:50.933Z,1010.96
2023-03-04T05:30:50.920Z,1010.93
2023-03-04T05:31:50.868Z,1010.93
2023-03-04T05:32:50.832Z,1010.9
2023-03-04T05:33:50.812Z,1010.91
2023-03-04T05:34:50.765Z,1010.88
2023-03-04T05:35:50.800Z,1010.92
2023-03-04T05:36:50.697Z,1010.95
2023-03-04T05:37:50.676Z,1010.92
2023-03-04T05:38:50.653Z,1010.96
2023-03-04T05:39:50.596Z,1010.95
2023-03-04T05:40:50.564Z,1010.93
2023-03-04T05:41:50.529Z,1010.94
2023-03-04T05:42:50.499Z,1010.92
2023-03-04T05:43:50.462Z,1011
2023-03-04T05:44:50.426Z,1011.01
2023-03-04T05:45:50.392Z,1010.96
2023-03-04T05:46:50.385Z,1010.99
2023-03-04T05:47:50.342Z,1010.98
2023-03-04T05:48:50.300Z,1011.02
2023-03-04T05:49:50.254Z,1011.02
2023-03-04T05:50:50.231Z,1011.02
2023-03-04T05:51:50.187Z,1011.03
2023-03-04T05:52:50.157Z,1011.01
2023-03-04T05:53:50.119Z,1011
2023-03-04T05:54:50.112Z,1010.99
2023-03-04T05:55:50.052Z,1011.04
2023-03-04T05:56:50.032Z,1011.03
2023-03-04T05:57:49.981Z,1010.97
2023-03-04T05:58:49.960Z,1010.99
2023-03-04T05:59:49.913Z,1011.1
2023-03-04T06:00:49.896Z,1011.06
2023-03-04T06:01:49.847Z,1011.07
2023-03-04T06:02:49.899Z,1011.05
2023-03-04T06:03:49.814Z,1011.02
2023-03-04T06:04:49.748Z,1011.04
2023-03-04T06:05:49.710Z,1011.08
2023-03-04T06:06:49.678Z,1011.07
2023-03-04T06:07:49.641Z,1011.05
2023-03-04T06:08:49.609Z,1011.05
2023-03-04T06:09:49.572Z,1011.05
2023-03-04T06:10:49.563Z,1011.08
2023-03-04T06:11:49.511Z,1011.06
2023-03-04T06:12:49.472Z,1011.13
2023-03-04T06:13:49.486Z,1011.12
2023-03-04T06:14:49.404Z,1011.13
2023-03-04T06:15:49.395Z,1011.16
2023-03-04T06:16:49.338Z,1011.13
2023-03-04T06:17:49.299Z,1011.14
2023-03-04T06:18:49.270Z,1011.16
2023-03-04T06:19:49.233Z,1011.24
2023-03-04T06:20:49.200Z,1011.24
2023-03-04T06:21:49.163Z,1011.22
2023-03-04T06:22:49.133Z,1011.3
2023-03-04T06:23:49.098Z,1011.25
2023-03-04T06:24:49.063Z,1011.3
2023-03-04T06:25:49.028Z,1011.31
2023-03-04T06:26:49.019Z,1011.28
2023-03-04T06:27:50.688Z,1011.27
2023-03-04T06:28:48.927Z,1011.3
2023-03-04T06:29:48.891Z,1011.28
2023-03-04T06:30:48.858Z,1011.24
2023-03-04T06:31:48.883Z,1011.28
2023-03-04T06:32:48.790Z,1011.29
2023-03-04T06:33:48.754Z,1011.23
2023-03-04T06:34:48.722Z,1011.3
2023-03-04T06:35:48.746Z,1011.33
2023-03-04T06:36:48.654Z,1011.29
2023-03-04T06:37:48.636Z,1011.31
2023-03-04T06:38:48.593Z,1011.27
2023-03-04T06:39:48.551Z,1011.3
2023-03-04T06:40:48.519Z,1011.32
2023-03-04T06:41:48.485Z,1011.29
2023-03-04T06:42:48.473Z,1011.3
2023-03-04T06:43:48.422Z,1011.3
2023-03-04T06:44:48.381Z,1011.38
2023-03-04T06:45:48.351Z,1011.36
2023-03-04T06:46:48.330Z,1011.35
2023-03-04T06:47:48.279Z,1011.36
2023-03-04T06:48:48.243Z,1011.35
2023-03-04T06:49:48.210Z,1011.32
2023-03-04T06:50:48.175Z,1011.37
2023-03-04T06:51:48.144Z,1011.33
2023-03-04T06:52:48.112Z,1011.35
2023-03-04T06:53:48.077Z,1011.36
2023-03-04T06:54:48.043Z,1011.37
2023-03-04T06:55:48.026Z,1011.42
2023-03-04T06:56:47.971Z,1011.39
2023-03-04T06:57:48.599Z,1011.39
2023-03-04T06:58:47.928Z,1011.38
2023-03-04T06:59:47.874Z,1011.4
2023-03-04T07:00:47.908Z,1011.4
2023-03-04T07:01:47.810Z,1011.46
2023-03-04T07:02:47.772Z,1011.45
2023-03-04T07:03:47.811Z,1011.42
2023-03-04T07:04:47.704Z,1011.46
2023-03-04T07:05:47.669Z,1011.43
2023-03-04T07:06:47.633Z,1011.43
2023-03-04T07:07:47.603Z,1011.43
2023-03-04T07:08:47.565Z,1011.48
2023-03-04T07:09:47.545Z,1011.39
2023-03-04T07:10:47.498Z,1011.42
2023-03-04T07:11:47.467Z,1011.47
2023-03-04T07:12:47.430Z,1011.42
2023-03-04T07:13:47.411Z,1011.43
2023-03-04T07:14:47.387Z,1011.48
2023-03-04T07:15:47.330Z,1011.46
2023-03-04T07:16:47.320Z,1011.46
2023-03-04T07:17:47.261Z,1011.44
2023-03-04T07:18:47.228Z,1011.46
2023-03-04T07:19:47.195Z,1011.52
2023-03-04T07:20:47.160Z,1011.47
2023-03-04T07:21:47.129Z,1011.48
2023-03-04T07:22:47.091Z,1011.53
2023-03-04T07:23:47.064Z,1011.5
2023-03-04T07:24:47.030Z,1011.49
2023-03-04T07:25:46.994Z,1011.51
2023-03-04T07:26:46.957Z,1011.53
2023-03-04T07:27:46.926Z,1011.53
2023-03-04T07:28:46.896Z,1011.54
2023-03-04T07:29:46.857Z,1011.6
2023-03-04T07:30:46.844Z,1011.58
2023-03-04T07:31:46.870Z,1011.62
2023-03-04T07:32:46.846Z,1011.64
2023-03-04T07:33:46.721Z,1011.62
2023-03-04T07:34:46.688Z,1011.64
2023-03-04T07:35:46.685Z,1011.66
2023-03-04T07:36:46.621Z,1011.68
2023-03-04T07:37:46.586Z,1011.67
2023-03-04T07:38:46.558Z,1011.63
2023-03-04T07:39:46.518Z,1011.66
2023-03-04T07:40:46.488Z,1011.72
2023-03-04T07:41:46.450Z,1011.66
2023-03-04T07:42:46.420Z,1011.62
2023-03-04T07:43:46.390Z,1011.65
2023-03-04T07:44:46.350Z,1011.64
2023-03-04T07:45:46.344Z,1011.65
2023-03-04T07:46:46.309Z,1011.67
2023-03-04T07:47:46.249Z,1011.67
2023-03-04T07:48:46.221Z,1011.66
2023-03-04T07:49:46.182Z,1011.67
2023-03-04T07:50:46.158Z,1011.62
2023-03-04T07:51:46.123Z,1011.61
2023-03-04T07:52:46.098Z,1011.63
2023-03-04T07:53:46.051Z,1011.64
2023-03-04T07:54:46.018Z,1011.68
2023-03-04T07:55:45.982Z,1011.6
2023-03-04T07:56:45.950Z,1011.59
2023-03-04T07:57:45.916Z,1011.6
2023-03-04T07:58:45.884Z,1011.63
2023-03-04T07:59:45.848Z,1011.59
2023-03-04T08:00:45.817Z,1011.62
2023-03-04T08:01:45.830Z,1011.62
2023-03-04T08:02:45.819Z,1011.65
2023-03-04T08:03:45.793Z,1011.59
2023-03-04T08:04:45.685Z,1011.58
2023-03-04T08:05:45.652Z,1011.6
2023-03-04T08:06:45.619Z,1011.59
2023-03-04T08:07:45.583Z,1011.59
2023-03-04T08:08:45.562Z,1011.62
2023-03-04T08:09:45.520Z,1011.63
2023-03-04T08:10:45.488Z,1011.58
2023-03-04T08:11:45.451Z,1011.6
2023-03-04T08:12:45.419Z,1011.61
2023-03-04T08:13:45.386Z,1011.57
2023-03-04T08:14:45.359Z,1011.57
2023-03-04T08:15:45.360Z,1011.6
2023-03-04T08:16:45.289Z,1011.56
2023-03-04T08:17:45.258Z,1011.58
2023-03-04T08:18:45.269Z,1011.55
2023-03-04T08:19:45.190Z,1011.58
2023-03-04T08:20:45.166Z,1011.57
2023-03-04T08:21:45.123Z,1011.56
2023-03-04T08:22:45.096Z,1011.57
2023-03-04T08:23:45.089Z,1011.55
2023-03-04T08:24:45.025Z,1011.53
2023-03-04T08:25:44.993Z,1011.52
2023-03-04T08:26:44.962Z,1011.53
2023-03-04T08:27:44.932Z,1011.57
2023-03-04T08:28:44.896Z,1011.54
2023-03-04T08:29:44.865Z,1011.54
2023-03-04T08:30:44.897Z,1011.55
2023-03-04T08:31:46.879Z,1011.53
2023-03-04T08:32:44.852Z,1011.47
2023-03-04T08:33:44.737Z,1011.51
2023-03-04T08:34:44.763Z,1011.47
2023-03-04T08:35:44.692Z,1011.5
2023-03-04T08:36:44.638Z,1011.47
2023-03-04T08:37:44.610Z,1011.44
2023-03-04T08:38:44.574Z,1011.45
2023-03-04T08:39:44.559Z,1011.53
2023-03-04T08:40:44.525Z,1011.51
2023-03-04T08:41:44.484Z,1011.47
2023-03-04T08:42:44.460Z,1011.43
2023-03-04T08:43:44.437Z,1011.46
2023-03-04T08:44:44.384Z,1011.45
2023-03-04T08:45:44.355Z,1011.47
2023-03-04T08:46:44.321Z,1011.47
2023-03-04T08:47:44.290Z,1011.49
2023-03-04T08:48:44.273Z,1011.49
2023-03-04T08:49:44.228Z,1011.47
2023-03-04T08:50:44.227Z,1011.46
2023-03-04T08:51:44.162Z,1011.47
2023-03-04T08:52:44.129Z,1011.48
2023-03-04T08:53:44.105Z,1011.53
2023-03-04T08:54:44.066Z,1011.56
2023-03-04T08:55:44.037Z,1011.49
2023-03-04T08:56:44.002Z,1011.53
2023-03-04T08:57:43.971Z,1011.45
2023-03-04T08:58:43.942Z,1011.46
2023-03-04T08:59:43.928Z,1011.51
2023-03-04T09:00:43.949Z,1011.47
2023-03-04T09:01:43.962Z,1011.46
2023-03-04T09:02:43.815Z,1011.45
2023-03-04T09:03:43.817Z,1011.49
2023-03-04T09:04:43.752Z,1011.43
2023-03-04T09:05:43.722Z,1011.53
2023-03-04T09:06:43.715Z,1011.57
2023-03-04T09:07:43.658Z,1011.48
2023-03-04T09:08:43.626Z,1011.48
2023-03-04T09:09:43.597Z,1011.49
2023-03-04T09:10:43.564Z,1011.49
2023-03-04T09:11:43.534Z,1011.5
2023-03-04T09:12:43.509Z,1011.52
2023-03-04T09:13:43.475Z,1011.48
2023-03-04T09:14:43.447Z,1011.46
2023-03-04T09:15:43.430Z,1011.51
2023-03-04T09:16:43.377Z,1011.45
2023-03-04T09:17:43.343Z,1011.49
2023-03-04T09:18:43.315Z,1011.49
2023-03-04T09:19:43.280Z,1011.52
2023-03-04T09:20:43.250Z,1011.57
2023-03-04T09:21:43.219Z,1011.47
2023-03-04T09:22:43.232Z,1011.56
2023-03-04T09:23:43.161Z,1011.57
2023-03-04T09:24:43.128Z,1011.6
2023-03-04T09:25:43.094Z,1011.56
2023-03-04T09:26:43.064Z,1011.56
2023-03-04T09:27:43.029Z,1011.51
2023-03-04T09:28:43.001Z,1011.48
2023-03-04T09:29:42.968Z,1011.47
2023-03-04T09:30:42.941Z,1011.49
2023-03-04T09:31:43.026Z,1011.45
2023-03-04T09:32:42.877Z,1011.45
2023-03-04T09:33:42.843Z,1011.48
2023-03-04T09:34:42.839Z,1011.5
2023-03-04T09:35:42.813Z,1011.45
2023-03-04T09:36:42.748Z,1011.45
2023-03-04T09:37:42.714Z,1011.48
2023-03-04T09:38:42.714Z,1011.42
2023-03-04T09:39:42.657Z,1011.44
2023-03-04T09:40:42.621Z,1011.52
2023-03-04T09:41:42.590Z,1011.48
2023-03-04T09:42:42.560Z,1011.46
2023-03-04T09:43:42.524Z,1011.49
2023-03-04T09:44:42.520Z,1011.48
2023-03-04T09:45:42.459Z,1011.43
2023-03-04T09:46:42.515Z,1011.5
2023-03-04T09:47:42.397Z,1011.47
2023-03-04T09:48:42.369Z,1011.48
2023-03-04T09:49:42.355Z,1011.52
2023-03-04T09:50:42.304Z,1011.53
2023-03-04T09:51:42.269Z,1011.5
2023-03-04T09:52:42.242Z,1011.49
2023-03-04T09:53:42.210Z,1011.46
2023-03-04T09:54:42.201Z,1011.51
2023-03-04T09:55:42.142Z,1011.48
2023-03-04T09:56:42.114Z,1011.56
2023-03-04T09:57:42.084Z,1011.45
2023-03-04T09:58:42.061Z,1011.49
2023-03-04T09:59:42.015Z,1011.47
2023-03-04T10:00:42.084Z,1011.46
2023-03-04T10:01:41.954Z,1011.45
2023-03-04T10:02:41.919Z,1011.36
2023-03-04T10:03:41.977Z,1011.46
2023-03-04T10:04:41.904Z,1011.42
2023-03-04T10:05:41.824Z,1011.44
2023-03-04T10:06:41.796Z,1011.45
2023-03-04T10:07:41.760Z,1011.5
2023-03-04T10:08:41.726Z,1011.49
2023-03-04T10:09:41.705Z,1011.51
2023-03-04T10:10:41.714Z,1011.42
2023-03-04T10:11:41.631Z,1011.41
2023-03-04T10:12:41.599Z,1011.39
2023-03-04T10:13:41.573Z,1011.35
2023-03-04T10:14:41.536Z,1011.42
2023-03-04T10:15:41.503Z,1011.39
2023-03-04T10:16:41.514Z,1011.35
2023-03-04T10:17:41.442Z,1011.4
2023-03-04T10:18:41.423Z,1011.37
2023-03-04T10:19:41.379Z,1011.4
2023-03-04T10:20:41.347Z,1011.34
2023-03-04T10:21:41.313Z,1011.34
2023-03-04T10:22:41.285Z,1011.31
2023-03-04T10:23:41.251Z,1011.36
2023-03-04T10:24:41.219Z,1011.32
2023-03-04T10:25:41.195Z,1011.32
2023-03-04T10:26:41.186Z,1011.31
2023-03-04T10:27:41.130Z,1011.24
2023-03-04T10:28:41.094Z,1011.29
2023-03-04T10:29:41.064Z,1011.31
2023-03-04T10:30:41.029Z,1011.29
2023-03-04T10:31:41.058Z,1011.27
2023-03-04T10:32:41.050Z,1011.27
2023-03-04T10:33:40.935Z,1011.25
2023-03-04T10:34:40.904Z,1011.26
2023-03-04T10:35:40.899Z,1011.2
2023-03-04T10:36:40.849Z,1011.25
2023-03-04T10:37:40.813Z,1011.21
2023-03-04T10:38:40.780Z,1011.26
2023-03-04T10:39:40.763Z,1011.19
2023-03-04T10:40:40.715Z,1011.19
2023-03-04T10:41:40.762Z,1011.27
2023-03-04T10:42:40.840Z,1011.23
2023-03-04T10:43:40.621Z,1011.22
2023-03-04T10:44:40.590Z,1011.29
2023-03-04T10:45:40.617Z,1011.27
2023-03-04T10:46:40.529Z,1011.23
2023-03-04T10:47:40.497Z,1011.3
2023-03-04T10:48:40.464Z,1011.19
2023-03-04T10:49:40.435Z,1011.23
2023-03-04T10:50:40.403Z,1011.19
2023-03-04T10:51:40.371Z,1011.21
2023-03-04T10:52:40.350Z,1011.19
2023-03-04T10:53:40.314Z,1011.21
2023-03-04T10:54:40.277Z,1011.23
2023-03-04T10:55:40.246Z,1011.17
2023-03-04T10:56:40.241Z,1011.22
2023-03-04T10:57:40.186Z,1011.25
2023-03-04T10:58:40.179Z,1011.24
2023-03-04T10:59:40.117Z,1011.24
2023-03-04T11:00:40.118Z,1011.19
2023-03-04T11:01:40.054Z,1011.15
2023-03-04T11:02:40.024Z,1011.25
2023-03-04T11:03:40.051Z,1011.19
2023-03-04T11:04:39.966Z,1011.17
2023-03-04T11:05:39.944Z,1011.21
2023-03-04T11:06:39.897Z,1011.18
2023-03-04T11:07:53.828Z,1011.14
2023-03-04T11:08:39.839Z,1011.23
2023-03-04T11:09:39.807Z,1011.21
2023-03-04T11:10:39.780Z,1011.22
2023-03-04T11:11:39.738Z,1011.16
2023-03-04T11:12:39.715Z,1011.18
2023-03-04T11:13:39.673Z,1011.12
2023-03-04T11:14:39.670Z,1011.17
2023-03-04T11:15:39.610Z,1011.18
2023-03-04T11:16:39.671Z,1011.1
2023-03-04T11:17:39.545Z,1011.13
2023-03-04T11:18:39.513Z,1011.09
2023-03-04T11:19:39.491Z,1011.11
2023-03-04T11:20:39.451Z,1011.06
2023-03-04T11:21:40.305Z,1011.13
2023-03-04T11:22:39.387Z,1011.07
2023-03-04T11:23:39.355Z,1011.12
2023-03-04T11:24:39.324Z,1011.14
2023-03-04T11:25:39.290Z,1011.12
2023-03-04T11:26:39.263Z,1011.07
2023-03-04T11:27:39.226Z,1011.06
2023-03-04T11:28:39.197Z,1011.04
2023-03-04T11:29:39.179Z,1011.06
2023-03-04T11:30:39.166Z,1010.98
2023-03-04T11:31:39.181Z,1011.02
2023-03-04T11:32:39.172Z,1010.94
2023-03-04T11:33:39.040Z,1010.95
2023-03-04T11:34:39.017Z,1010.97
2023-03-04T11:35:39.053Z,1010.93
2023-03-04T11:36:38.957Z,1010.93
2023-03-04T11:37:38.926Z,1010.94
2023-03-04T11:38:38.902Z,1010.89
2023-03-04T11:39:38.880Z,1010.9
2023-03-04T11:40:38.865Z,1010.89
2023-03-04T11:41:38.817Z,1010.85
2023-03-04T11:42:38.790Z,1010.84
2023-03-04T11:43:38.754Z,1010.84
2023-03-04T11:44:38.728Z,1010.82
2023-03-04T11:45:38.695Z,1010.79
2023-03-04T11:46:38.701Z,1010.78
2023-03-04T11:47:38.636Z,1010.81
2023-03-04T11:48:38.607Z,1010.78
2023-03-04T11:49:38.578Z,1010.79
2023-03-04T11:50:38.547Z,1010.77
2023-03-04T11:51:38.518Z,1010.7
2023-03-04T11:52:38.487Z,1010.69
2023-03-04T11:53:38.461Z,1010.78
2023-03-04T11:54:38.424Z,1010.73
2023-03-04T11:55:38.395Z,1010.7
2023-03-04T11:56:38.360Z,1010.73
2023-03-04T11:57:38.334Z,1010.71
2023-03-04T11:58:38.306Z,1010.7
2023-03-04T11:59:38.270Z,1010.73
2023-03-04T12:00:38.238Z,1010.67
2023-03-04T12:01:38.207Z,1010.64
2023-03-04T12:02:38.198Z,1010.69
2023-03-04T12:03:38.162Z,1010.69
2023-03-04T12:04:38.274Z,1010.66
2023-03-04T12:05:38.100Z,1010.71
2023-03-04T12:06:38.050Z,1010.71
2023-03-04T12:07:38.019Z,1010.64